Time;durP1;ratioP1;P1;durP2;ratioP2;P2;SDS_P1;SDS_P2;PMS_P1;PMS_P2;Temp;Humidity;BMP_temperature;BMP_pressure;BME280_temperature;BME280_humidity;BME280_pressure;Samples;Min_cycle;Max_cycle;Signal;HPM_P1;HPM_P2
2022/09/18 00:01:11;;;;;;;267.20;258.77;;;11.30;99.90;;;;;;5016572;28;20453;-81
2022/09/18 00:03:40;;;;;;;378.27;365.20;;;11.30;99.90;;;;;;5017020;28;21075;-81
2022/09/18 00:06:09;;;;;;;322.07;311.87;;;11.30;99.90;;;;;;5017030;28;20555;-81
2022/09/18 00:08:37;;;;;;;307.60;297.60;;;11.30;99.90;;;;;;5017628;28;20843;-82
2022/09/18 00:11:04;;;;;;;317.57;306.77;;;11.30;99.90;;;;;;5017210;28;20500;-82
2022/09/18 00:13:31;;;;;;;344.47;332.57;;;11.30;99.90;;;;;;5017383;28;20481;-81
2022/09/18 00:15:58;;;;;;;376.67;364.27;;;11.30;99.90;;;;;;5017170;28;20851;-81
2022/09/18 00:18:27;;;;;;;397.80;384.40;;;11.30;99.90;;;;;;5017057;28;20453;-81
2022/09/18 00:20:55;;;;;;;390.30;377.20;;;11.20;99.90;;;;;;5016741;28;20451;-80
2022/09/18 00:23:22;;;;;;;404.73;390.93;;;11.30;99.90;;;;;;5016431;28;20549;-80
2022/09/18 00:25:49;;;;;;;398.80;385.53;;;11.20;99.90;;;;;;5015865;28;20537;-82
2022/09/18 00:28:16;;;;;;;361.40;349.50;;;11.30;99.90;;;;;;5017330;28;20476;-81
2022/09/18 00:30:43;;;;;;;419.90;405.37;;;11.30;99.90;;;;;;5016708;28;20743;-81
2022/09/18 00:33:10;;;;;;;321.37;311.43;;;11.30;99.90;;;;;;5016782;28;20491;-81
2022/09/18 00:35:42;;;;;;;402.77;388.43;;;11.30;99.90;;;;;;5016570;28;20485;-81
2022/09/18 00:38:10;;;;;;;378.30;364.27;;;11.30;99.90;;;;;;5016950;28;20453;-81
2022/09/18 00:40:37;;;;;;;420.73;406.43;;;11.30;99.90;;;;;;5016812;28;20459;-81
2022/09/18 00:43:18;;;;;;;317.07;306.73;;;11.30;99.90;;;;;;5016609;28;21023;-82
2022/09/18 00:45:46;;;;;;;339.73;328.87;;;11.30;99.90;;;;;;5017010;28;20460;-82
2022/09/18 00:48:14;;;;;;;389.07;376.10;;;11.30;99.90;;;;;;5017224;28;20456;-82
2022/09/18 00:50:44;;;;;;;416.30;402.07;;;11.30;99.90;;;;;;5016751;28;20836;-81
2022/09/18 00:53:12;;;;;;;377.40;365.03;;;11.30;99.90;;;;;;5015643;28;20477;-82
2022/09/18 00:55:41;;;;;;;397.63;384.43;;;11.30;99.90;;;;;;5017035;28;20876;-82
2022/09/18 00:58:09;;;;;;;397.90;384.23;;;11.40;99.90;;;;;;5016044;28;20453;-82
2022/09/18 01:00:37;;;;;;;392.57;379.30;;;11.30;99.90;;;;;;5017443;28;20464;-81
2022/09/18 01:03:04;;;;;;;336.17;325.57;;;11.30;99.90;;;;;;5016731;28;20985;-82
2022/09/18 01:05:42;;;;;;;390.03;376.33;;;11.30;99.90;;;;;;5016742;28;20456;-82
2022/09/18 01:08:23;;;;;;;386.80;373.07;;;11.40;99.90;;;;;;5016504;28;20964;-82
2022/09/18 01:11:00;;;;;;;364.23;352.50;;;11.30;99.90;;;;;;5016626;28;20433;-82
2022/09/18 01:13:35;;;;;;;322.07;311.47;;;11.30;99.90;;;;;;5016199;28;20480;-81
2022/09/18 01:16:08;;;;;;;289.80;279.97;;;11.30;99.90;;;;;;5016502;28;20436;-82
2022/09/18 01:18:43;;;;;;;282.97;273.63;;;11.30;99.90;;;;;;5016222;28;20446;-82
2022/09/18 01:21:14;;;;;;;306.67;296.27;;;11.30;99.90;;;;;;5015978;28;20483;-81
2022/09/18 01:24:17;;;;;;;285.47;276.37;;;11.30;99.90;;;;;;5015976;28;20456;-82
2022/09/18 01:26:54;;;;;;;283.17;274.07;;;11.30;99.90;;;;;;4997944;28;20453;-81
2022/09/18 01:29:35;;;;;;;281.17;272.43;;;11.40;99.90;;;;;;5016670;28;21000;-81
2022/09/18 01:32:08;;;;;;;251.40;243.80;;;11.40;99.90;;;;;;5016016;28;20473;-81
2022/09/18 01:34:40;;;;;;;229.27;222.00;;;11.40;99.90;;;;;;5016419;28;20507;-81
2022/09/18 01:37:15;;;;;;;249.60;241.90;;;11.40;99.90;;;;;;5020186;28;20477;-81
2022/09/18 01:39:51;;;;;;;260.70;252.50;;;11.30;99.90;;;;;;5019227;28;20444;-82
2022/09/18 01:42:21;;;;;;;225.97;218.77;;;11.40;99.90;;;;;;5019429;28;20552;-81
2022/09/18 01:44:50;;;;;;;171.57;165.57;;;11.40;99.90;;;;;;5019642;28;20436;-82
2022/09/18 01:47:18;;;;;;;176.73;170.57;;;11.40;99.90;;;;;;5019765;28;20457;-81
2022/09/18 01:49:47;;;;;;;130.93;126.60;;;11.40;99.90;;;;;;5019508;28;20456;-81
2022/09/18 01:52:20;;;;;;;186.77;180.87;;;11.40;99.90;;;;;;5019253;28;20823;-82
2022/09/18 01:54:50;;;;;;;202.57;196.23;;;11.30;99.90;;;;;;5019223;28;20473;-81
2022/09/18 01:57:22;;;;;;;233.27;225.73;;;11.30;99.90;;;;;;5019093;28;20508;-81
2022/09/18 01:59:57;;;;;;;193.57;187.60;;;11.30;99.90;;;;;;5019480;28;20995;-81
2022/09/18 02:02:29;;;;;;;284.23;275.07;;;11.30;99.90;;;;;;5019245;28;20512;-81
2022/09/18 02:05:05;;;;;;;291.13;281.53;;;11.30;99.90;;;;;;5019532;28;20839;-81
2022/09/18 02:07:39;;;;;;;348.43;336.90;;;11.20;99.90;;;;;;5018764;28;20459;-81
2022/09/18 02:10:07;;;;;;;401.10;387.30;;;11.20;99.90;;;;;;5019418;28;20906;-79
2022/09/18 02:12:41;;;;;;;439.30;423.33;;;11.30;99.90;;;;;;5019078;28;20477;-81
2022/09/18 02:15:17;;;;;;;420.93;406.07;;;11.20;99.90;;;;;;5019385;28;20509;-81
2022/09/18 02:17:50;;;;;;;450.37;434.47;;;11.30;99.90;;;;;;5018901;28;20449;-81
2022/09/18 02:20:21;;;;;;;482.40;464.70;;;11.30;99.90;;;;;;5018812;28;20443;-81
2022/09/18 02:22:51;;;;;;;488.63;470.50;;;11.20;99.90;;;;;;5019032;28;20469;-82
2022/09/18 02:25:24;;;;;;;490.90;472.87;;;11.20;99.90;;;;;;5019138;28;20982;-81
2022/09/18 02:27:52;;;;;;;524.50;503.93;;;11.20;99.90;;;;;;5019231;28;20459;-81
2022/09/18 02:30:24;;;;;;;563.57;540.83;;;11.20;99.90;;;;;;5019519;28;21148;-81
2022/09/18 02:32:54;;;;;;;527.83;507.33;;;11.20;99.90;;;;;;5019687;28;20559;-81
2022/09/18 02:35:23;;;;;;;568.03;545.00;;;11.20;99.90;;;;;;5021099;28;20460;-80
2022/09/18 02:37:57;;;;;;;635.60;606.13;;;11.20;99.90;;;;;;5023178;28;20532;-81
2022/09/18 02:40:41;;;;;;;589.13;565.07;;;11.10;99.90;;;;;;5022577;28;20479;-81
2022/09/18 02:43:21;;;;;;;648.17;618.57;;;11.10;99.90;;;;;;5020650;28;20552;-82
2022/09/18 02:45:57;;;;;;;540.73;519.67;;;11.10;99.90;;;;;;5019853;28;21007;-81
2022/09/18 02:48:42;;;;;;;575.87;551.37;;;11.00;99.90;;;;;;5019935;28;21118;-82
2022/09/18 02:51:18;;;;;;;490.90;473.10;;;11.00;99.90;;;;;;5020197;28;20460;-81
2022/09/18 02:53:53;;;;;;;629.70;603.13;;;11.00;99.90;;;;;;5020001;28;20479;-82
2022/09/18 02:56:27;;;;;;;693.50;661.80;;;11.00;99.90;;;;;;5020486;28;20456;-82
2022/09/18 02:59:01;;;;;;;715.80;680.87;;;11.00;99.90;;;;;;5020718;28;20449;-82
2022/09/18 03:01:30;;;;;;;413.53;399.83;;;11.00;99.90;;;;;;5020171;28;20445;-82
2022/09/18 03:04:03;;;;;;;560.00;538.10;;;11.00;99.90;;;;;;5019655;28;20452;-81
2022/09/18 03:06:30;;;;;;;695.00;662.37;;;11.00;99.90;;;;;;5019930;28;20532;-82
2022/09/18 03:08:57;;;;;;;668.17;636.50;;;11.00;99.90;;;;;;5020465;28;20460;-81
2022/09/18 03:11:23;;;;;;;686.67;654.07;;;11.00;99.90;;;;;;5019783;28;20445;-82
2022/09/18 03:13:50;;;;;;;764.40;720.90;;;11.00;99.90;;;;;;5020482;28;20480;-82
2022/09/18 03:16:17;;;;;;;743.67;703.57;;;11.00;99.90;;;;;;5019582;28;20464;-82
2022/09/18 03:18:45;;;;;;;739.37;700.30;;;11.00;99.90;;;;;;5020232;28;20464;-81
2022/09/18 03:21:12;;;;;;;750.37;708.30;;;11.00;99.90;;;;;;5019058;28;20457;-81
2022/09/18 03:23:38;;;;;;;754.70;713.13;;;11.00;99.90;;;;;;5019989;28;20842;-82
2022/09/18 03:26:05;;;;;;;775.63;730.53;;;11.00;99.90;;;;;;5018962;28;20456;-82
2022/09/18 03:28:32;;;;;;;777.53;732.50;;;11.00;99.90;;;;;;5020460;28;20457;-83
2022/09/18 03:30:59;;;;;;;731.20;691.40;;;10.90;99.90;;;;;;5018907;28;20824;-82
2022/09/18 03:33:26;;;;;;;738.40;698.40;;;10.90;99.90;;;;;;5019797;28;20491;-83
2022/09/18 03:35:54;;;;;;;758.87;716.00;;;10.90;99.90;;;;;;5019184;28;20460;-83
2022/09/18 03:38:20;;;;;;;768.90;723.63;;;10.90;99.90;;;;;;5019944;28;20453;-82
2022/09/18 03:40:47;;;;;;;814.07;762.60;;;10.90;99.90;;;;;;5018910;28;20455;-81
2022/09/18 03:43:14;;;;;;;817.03;765.03;;;11.00;99.90;;;;;;5018158;28;21009;-83
2022/09/18 03:45:40;;;;;;;801.00;751.20;;;11.00;99.90;;;;;;5019297;28;20449;-82
2022/09/18 03:48:07;;;;;;;834.77;779.90;;;11.00;99.90;;;;;;5018700;28;20480;-84
2022/09/18 03:50:34;;;;;;;775.20;729.43;;;11.00;99.90;;;;;;5020659;28;20455;-83
2022/09/18 03:53:02;;;;;;;834.87;779.80;;;11.00;99.90;;;;;;5019035;28;20567;-83
2022/09/18 03:55:29;;;;;;;801.07;750.23;;;11.00;99.90;;;;;;5018731;28;20475;-82
2022/09/18 03:57:57;;;;;;;788.83;739.17;;;11.00;99.90;;;;;;5018741;28;20487;-83
2022/09/18 04:00:24;;;;;;;832.17;773.47;;;11.00;99.90;;;;;;5017748;28;20449;-83
2022/09/18 04:02:51;;;;;;;820.67;762.30;;;10.90;99.90;;;;;;5019236;28;20509;-83
2022/09/18 04:05:18;;;;;;;830.20;768.30;;;10.90;99.90;;;;;;5018103;28;20456;-83
2022/09/18 04:07:44;;;;;;;816.13;755.67;;;10.90;99.90;;;;;;5019852;28;20465;-84
2022/09/18 04:10:13;;;;;;;790.30;735.77;;;10.80;99.90;;;;;;5018954;28;20460;-83
2022/09/18 04:12:42;;;;;;;825.97;767.00;;;10.90;99.90;;;;;;5018924;28;20546;-83
2022/09/18 04:15:09;;;;;;;821.80;760.40;;;10.80;99.90;;;;;;5019176;28;20487;-83
2022/09/18 04:17:36;;;;;;;818.97;757.80;;;10.90;99.90;;;;;;5018965;28;20449;-83
2022/09/18 04:20:04;;;;;;;806.87;749.27;;;10.80;99.90;;;;;;5019252;28;20449;-83
2022/09/18 04:22:32;;;;;;;793.93;737.40;;;10.80;99.90;;;;;;5018667;28;20572;-83
2022/09/18 04:24:59;;;;;;;792.17;737.53;;;10.80;99.90;;;;;;5019210;28;20457;-84
2022/09/18 04:27:29;;;;;;;818.90;756.00;;;10.80;99.90;;;;;;5019036;28;20453;-84
2022/09/18 04:29:57;;;;;;;808.33;749.73;;;10.80;99.90;;;;;;5018581;28;20461;-83
2022/09/18 04:32:23;;;;;;;794.93;739.93;;;10.80;99.90;;;;;;5019071;28;20477;-83
2022/09/18 04:34:50;;;;;;;807.63;747.83;;;10.90;99.90;;;;;;5017922;28;20457;-83
2022/09/18 04:37:17;;;;;;;793.40;737.50;;;10.90;99.90;;;;;;5018734;28;20494;-83
2022/09/18 04:39:45;;;;;;;796.67;737.57;;;11.00;99.90;;;;;;5018802;28;20487;-83
2022/09/18 04:42:12;;;;;;;801.10;740.13;;;11.00;99.90;;;;;;5018600;28;20467;-84
2022/09/18 04:44:43;;;;;;;812.70;748.93;;;11.00;99.90;;;;;;5019516;28;20969;-84
2022/09/18 04:47:10;;;;;;;817.90;752.00;;;11.10;99.90;;;;;;5018363;28;20457;-84
2022/09/18 04:49:37;;;;;;;829.83;763.10;;;11.00;99.90;;;;;;5018890;28;20514;-83
2022/09/18 04:52:04;;;;;;;831.40;763.90;;;11.00;99.90;;;;;;5018991;28;20460;-83
2022/09/18 04:54:44;;;;;;;826.70;762.30;;;11.00;99.90;;;;;;5018046;28;20477;-82
2022/09/18 04:57:14;;;;;;;827.07;761.07;;;11.10;99.90;;;;;;5019217;28;20515;-83
2022/09/18 04:59:45;;;;;;;812.73;748.67;;;11.10;99.90;;;;;;5018462;28;20457;-83
2022/09/18 05:02:56;;;;;;;802.97;741.47;;;11.10;99.90;;;;;;5019285;28;20568;-84
2022/09/18 05:05:24;;;;;;;797.67;740.87;;;11.10;99.90;;;;;;5016065;28;20441;-83
2022/09/18 05:07:51;;;;;;;794.07;739.27;;;11.10;99.90;;;;;;5017725;28;20820;-84
2022/09/18 05:10:18;;;;;;;801.40;744.00;;;11.10;99.90;;;;;;5019965;28;20495;-84
2022/09/18 05:12:45;;;;;;;812.57;750.60;;;11.10;99.90;;;;;;5022943;28;20488;-83
2022/09/18 05:15:41;;;;;;;813.80;752.50;;;11.10;99.90;;;;;;5022129;28;20484;-84
2022/09/18 05:18:13;;;;;;;781.90;728.07;;;11.10;99.90;;;;;;5019600;28;20457;-83
2022/09/18 05:20:40;;;;;;;792.17;737.17;;;11.20;99.90;;;;;;5023434;28;20459;-84
2022/09/18 05:23:08;;;;;;;791.60;736.87;;;11.20;99.90;;;;;;5054314;23;20547;-84
2022/09/18 05:25:35;;;;;;;726.97;682.63;;;11.20;99.90;;;;;;5022988;28;20955;-82
2022/09/18 05:28:05;;;;;;;741.73;694.97;;;11.20;99.90;;;;;;5023862;28;20471;-82
2022/09/18 05:30:32;;;;;;;769.27;717.97;;;11.30;99.90;;;;;;5020838;28;20445;-83
2022/09/18 05:33:03;;;;;;;805.60;748.60;;;11.30;99.90;;;;;;5021259;28;20476;-83
2022/09/18 05:35:33;;;;;;;792.10;737.60;;;11.30;99.90;;;;;;5020628;28;20487;-83
2022/09/18 05:38:00;;;;;;;777.83;727.27;;;11.30;99.90;;;;;;5019062;28;20533;-83
2022/09/18 05:40:31;;;;;;;747.43;701.03;;;11.30;99.90;;;;;;5022127;28;20463;-82
2022/09/18 05:42:58;;;;;;;784.73;733.03;;;11.30;99.90;;;;;;5022104;28;20577;-83
2022/09/18 05:45:27;;;;;;;740.17;693.90;;;11.30;99.90;;;;;;5022559;28;20532;-83
2022/09/18 05:47:55;;;;;;;754.97;705.97;;;11.20;99.90;;;;;;5012704;28;20450;-83
2022/09/18 05:50:23;;;;;;;753.00;704.83;;;11.30;99.90;;;;;;5020308;28;20897;-82
2022/09/18 05:52:59;;;;;;;735.90;690.90;;;11.30;99.90;;;;;;5021396;28;20500;-83
2022/09/18 05:55:27;;;;;;;754.93;706.13;;;11.30;99.90;;;;;;5021792;28;20476;-82
2022/09/18 05:57:54;;;;;;;762.70;712.67;;;11.40;99.90;;;;;;5021088;28;20457;-84
2022/09/18 06:00:21;;;;;;;734.57;688.97;;;11.30;99.90;;;;;;5021416;28;20545;-83
2022/09/18 06:02:53;;;;;;;773.53;722.10;;;11.30;99.90;;;;;;5022488;28;20587;-83
2022/09/18 06:05:20;;;;;;;753.53;705.53;;;11.40;99.90;;;;;;5021762;28;20841;-82
2022/09/18 06:07:47;;;;;;;737.57;692.07;;;11.50;99.90;;;;;;5021387;28;20453;-83
2022/09/18 06:10:16;;;;;;;739.67;694.17;;;11.40;99.90;;;;;;5020716;28;20465;-83
2022/09/18 06:12:42;;;;;;;738.37;694.00;;;11.50;99.90;;;;;;5021060;28;20482;-84
2022/09/18 06:15:10;;;;;;;732.77;688.77;;;11.50;99.90;;;;;;5020299;28;20515;-84
2022/09/18 06:21:13;;;;;;;686.40;651.40;;;11.60;99.90;;;;;;4916303;29;20510;-83
2022/09/18 06:27:16;;;;;;;691.80;654.63;;;11.70;99.90;;;;;;4958934;28;21182;-84
2022/09/18 06:30:14;;;;;;;675.70;641.13;;;11.70;99.90;;;;;;4978882;28;20501;-84
2022/09/18 06:33:13;;;;;;;643.53;614.20;;;11.80;99.90;;;;;;5016699;28;20861;-83
2022/09/18 06:35:41;;;;;;;620.70;593.27;;;11.80;99.90;;;;;;5020783;28;20453;-83
2022/09/18 06:42:15;;;;;;;485.33;466.43;;;11.80;99.90;;;;;;4951340;28;20526;-82
2022/09/18 06:45:21;;;;;;;468.40;451.40;;;11.80;99.90;;;;;;4880069;29;20481;-83
2022/09/18 06:51:50;;;;;;;;;;;;;;;;;;;;;
2022/09/18 06:54:15;;;;;;;500.67;482.47;;;11.90;99.90;;;;;;4844864;29;20493;-84
2022/09/18 06:57:18;;;;;;;468.50;451.97;;;11.90;99.90;;;;;;5006102;28;20461;-83
2022/09/18 06:59:44;;;;;;;490.57;473.23;;;12.00;99.90;;;;;;5020216;28;20444;-82
2022/09/18 07:02:59;;;;;;;;;;;;;;;;;;;;;
2022/09/18 07:05:27;;;;;;;372.17;359.90;;;12.10;99.90;;;;;;4999732;28;20686;-83
2022/09/18 07:11:05;;;;;;;492.57;475.37;;;11.70;99.90;;;;;;4979679;28;20796;-83
2022/09/18 07:13:32;;;;;;;496.37;478.87;;;11.50;99.90;;;;;;5004426;28;20473;-84
2022/09/18 07:15:59;;;;;;;555.87;534.07;;;11.60;99.90;;;;;;5016664;28;20452;-84
2022/09/18 07:18:47;;;;;;;540.40;519.57;;;11.80;99.90;;;;;;5018914;28;20449;-84
2022/09/18 07:21:23;;;;;;;539.27;518.87;;;11.80;99.90;;;;;;5017782;28;20455;-83
2022/09/18 07:26:32;;;;;;;447.83;432.33;;;11.90;99.90;;;;;;5008479;28;20897;-83
2022/09/18 07:29:25;;;;;;;469.57;452.37;;;11.90;99.90;;;;;;5017954;28;20449;-84
2022/09/18 07:31:54;;;;;;;547.93;527.20;;;12.00;99.90;;;;;;5019600;28;20473;-84
2022/09/18 07:34:21;;;;;;;480.50;463.30;;;12.10;99.90;;;;;;5015700;28;20449;-84
2022/09/18 07:36:49;;;;;;;388.23;375.27;;;12.20;99.90;;;;;;5004218;28;20461;-85
2022/09/18 07:39:17;;;;;;;461.03;445.00;;;12.20;99.90;;;;;;4999180;28;20786;-84
2022/09/18 07:42:19;;;;;;;497.20;479.20;;;12.20;99.90;;;;;;4998363;28;20473;-84
2022/09/18 07:45:04;;;;;;;466.23;449.43;;;12.30;99.90;;;;;;5006485;28;20476;-84
2022/09/18 07:47:31;;;;;;;500.03;481.83;;;12.50;99.90;;;;;;5018918;28;20460;-86
2022/09/18 07:53:08;;;;;;;368.33;356.03;;;12.70;99.90;;;;;;4936981;29;20484;-84
2022/09/18 07:56:06;;;;;;;282.73;274.07;;;12.80;99.90;;;;;;4947575;29;20916;-84
2022/09/18 07:58:34;;;;;;;266.23;257.93;;;12.80;99.90;;;;;;4927137;29;20488;-84
2022/09/18 08:01:05;;;;;;;145.47;140.57;;;12.90;99.90;;;;;;4940667;29;20493;-83
2022/09/18 08:06:37;;;;;;;128.47;123.53;;;13.00;99.90;;;;;;4898875;28;20482;-83
2022/09/18 08:09:22;;;;;;;84.53;81.33;;;12.90;99.90;;;;;;5013050;28;20485;-83
2022/09/18 08:12:31;;;;;;;126.80;122.47;;;12.90;99.90;;;;;;5016639;28;20477;-83
2022/09/18 08:15:17;;;;;;;127.63;123.33;;;13.10;99.90;;;;;;5006001;28;20473;-83
2022/09/18 08:17:45;;;;;;;92.43;89.23;;;13.10;99.90;;;;;;5016411;28;20475;-83
2022/09/18 08:20:12;;;;;;;66.67;64.23;;;13.20;99.90;;;;;;5015799;28;20950;-82
2022/09/18 08:25:34;;;;;;;20.35;19.30;;;13.20;99.90;;;;;;4994739;28;20456;-82
2022/09/18 08:28:28;;;;;;;27.20;26.00;;;13.20;99.90;;;;;;5015788;28;20280;-82
2022/09/18 08:31:00;;;;;;;24.30;23.20;;;13.20;99.90;;;;;;5015269;28;20449;-82
2022/09/18 08:33:27;;;;;;;35.50;34.00;;;13.10;99.90;;;;;;5015420;28;21068;-82
2022/09/18 08:35:56;;;;;;;49.03;47.13;;;13.00;99.90;;;;;;5016392;28;20451;-84
2022/09/18 08:38:24;;;;;;;108.53;104.20;;;13.00;99.90;;;;;;5017642;28;20461;-84
2022/09/18 08:41:19;;;;;;;119.50;115.20;;;12.90;99.90;;;;;;5018473;28;20446;-84
2022/09/18 08:43:59;;;;;;;150.27;145.30;;;13.00;99.90;;;;;;5018486;28;20481;-83
2022/09/18 08:46:35;;;;;;;61.87;59.43;;;13.20;99.90;;;;;;5021085;28;20523;-83
2022/09/18 08:52:34;;;;;;;70.27;67.37;;;13.40;99.90;;;;;;4953553;28;20527;-83
2022/09/18 08:55:23;;;;;;;67.93;65.23;;;13.70;99.90;;;;;;5009288;28;20457;-83
2022/09/18 08:57:55;;;;;;;55.93;53.27;;;13.90;99.90;;;;;;5021913;28;20941;-83
2022/09/18 09:00:31;;;;;;;26.80;25.20;;;13.90;99.90;;;;;;5021552;28;20451;-83
2022/09/18 09:06:32;;;;;;;15.87;14.93;;;13.40;99.90;;;;;;4996886;28;20483;-82
2022/09/18 09:09:22;;;;;;;36.63;34.58;;;13.00;99.90;;;;;;5020838;28;20482;-83
2022/09/18 09:14:47;;;;;;;154.23;148.43;;;12.60;99.90;;;;;;5086160;23;20486;-83
2022/09/18 09:17:18;;;;;;;310.93;301.03;;;12.60;99.90;;;;;;5041810;28;20456;-82
2022/09/18 09:20:45;;;;;;;378.03;365.40;;;12.50;99.90;;;;;;5043107;28;20900;-83
2022/09/18 09:23:21;;;;;;;354.87;343.70;;;12.40;99.90;;;;;;5016332;28;21053;-83
2022/09/18 09:26:00;;;;;;;340.30;329.47;;;12.30;99.90;;;;;;5018679;28;21052;-82
2022/09/18 09:31:55;;;;;;;331.30;321.27;;;12.00;99.90;;;;;;4896812;28;20554;-83
2022/09/18 09:34:54;;;;;;;395.33;383.57;;;12.10;99.90;;;;;;5024899;28;20445;-82
2022/09/18 09:37:35;;;;;;;454.00;440.23;;;12.40;99.90;;;;;;5055749;28;20455;-80
2022/09/18 09:40:12;;;;;;;393.43;381.73;;;12.70;99.90;;;;;;5054046;28;20474;-82
2022/09/18 09:42:43;;;;;;;473.57;458.90;;;13.00;99.90;;;;;;5051040;28;20467;-82
2022/09/18 09:45:25;;;;;;;241.80;234.10;;;13.50;99.90;;;;;;5059079;28;20514;-83
2022/09/18 09:48:00;;;;;;;152.37;147.37;;;13.60;99.90;;;;;;5060898;28;20439;-83
2022/09/18 09:50:43;;;;;;;34.73;33.20;;;13.90;99.90;;;;;;5056605;28;20965;-83
2022/09/18 09:53:12;;;;;;;23.50;22.20;;;13.80;99.90;;;;;;5040373;28;20479;-83
2022/09/18 09:55:49;;;;;;;37.23;35.37;;;13.70;99.90;;;;;;5040399;28;20445;-82
2022/09/18 09:58:36;;;;;;;18.63;17.40;;;13.50;99.90;;;;;;5040538;28;20452;-82
2022/09/18 10:01:11;;;;;;;9.10;5.60;;;13.40;99.90;;;;;;5049169;28;20443;-82
2022/09/18 10:03:57;;;;;;;20.60;19.10;;;13.20;99.90;;;;;;5056254;28;20481;-83
2022/09/18 10:06:41;;;;;;;25.73;23.90;;;13.30;99.90;;;;;;5039734;28;20555;-82
2022/09/18 10:09:19;;;;;;;41.70;39.97;;;13.50;99.90;;;;;;5046230;28;20875;-83
2022/09/18 10:11:58;;;;;;;11.60;10.80;;;13.60;99.90;;;;;;5059674;28;20550;-83
2022/09/18 10:14:31;;;;;;;10.90;6.67;;;13.60;99.90;;;;;;5052654;28;20542;-83
2022/09/18 10:17:04;;;;;;;7.40;2.80;;;13.50;99.90;;;;;;5039810;28;20452;-83
2022/09/18 10:19:44;;;;;;;4.70;3.10;;;13.30;99.90;;;;;;5053086;28;20458;-82
2022/09/18 10:22:27;;;;;;;4.20;2.77;;;13.10;99.90;;;;;;5052595;28;20883;-83
2022/09/18 10:24:59;;;;;;;5.10;3.70;;;13.10;99.90;;;;;;5038547;28;20945;-83
2022/09/18 10:27:39;;;;;;;9.47;6.53;;;13.00;99.90;;;;;;5040516;28;20436;-83
2022/09/18 10:30:19;;;;;;;7.77;7.17;;;13.10;99.90;;;;;;5039841;28;20463;-83
2022/09/18 10:32:48;;;;;;;6.40;4.97;;;13.20;99.90;;;;;;5051989;28;20474;-83
2022/09/18 10:35:47;;;;;;;10.87;7.13;;;13.30;99.90;;;;;;5060988;28;20530;-83
2022/09/18 10:38:36;;;;;;;8.00;3.90;;;13.60;99.90;;;;;;5046605;28;20487;-83
2022/09/18 10:41:29;;;;;;;4.90;4.37;;;13.50;99.90;;;;;;5041036;28;20448;-84
2022/09/18 10:44:05;;;;;;;5.18;3.70;;;13.50;99.90;;;;;;5019425;28;20469;-84
2022/09/18 10:46:35;;;;;;;5.53;3.60;;;13.40;99.90;;;;;;5040341;28;20201;-83
2022/09/18 10:49:16;;;;;;;6.03;3.40;;;13.30;99.90;;;;;;5043704;28;20832;-82
2022/09/18 10:54:17;;;;;;;5.53;4.20;;;13.10;99.90;;;;;;5051160;28;20431;-84
2022/09/18 10:56:44;;;;;;;8.47;3.40;;;13.20;99.90;;;;;;5054028;28;20952;-82
2022/09/18 10:59:34;;;;;;;6.20;5.70;;;13.10;99.90;;;;;;5057247;28;20450;-82
2022/09/18 11:02:03;;;;;;;6.83;5.43;;;13.10;99.90;;;;;;5053017;28;20432;-83
2022/09/18 11:04:31;;;;;;;9.43;5.43;;;13.10;99.90;;;;;;5035366;28;20463;-84
2022/09/18 11:07:01;;;;;;;7.60;6.60;;;13.30;99.90;;;;;;5035461;28;20563;-83
2022/09/18 11:09:35;;;;;;;6.13;3.33;;;13.40;99.90;;;;;;5034865;28;20459;-84
2022/09/18 11:12:03;;;;;;;5.10;3.30;;;13.50;99.90;;;;;;5033734;28;20456;-84
2022/09/18 11:14:38;;;;;;;4.50;3.90;;;13.70;99.90;;;;;;5035343;28;20459;-84
2022/09/18 11:17:06;;;;;;;4.30;3.00;;;13.70;99.90;;;;;;5035324;28;20451;-84
2022/09/18 11:19:34;;;;;;;5.60;3.47;;;13.80;99.90;;;;;;5035503;28;20491;-82
2022/09/18 11:22:05;;;;;;;6.03;2.63;;;13.80;99.90;;;;;;5032564;28;20452;-84
2022/09/18 11:24:34;;;;;;;5.30;2.20;;;13.60;99.90;;;;;;5035566;28;20498;-84
2022/09/18 11:27:02;;;;;;;4.17;2.30;;;13.80;99.90;;;;;;5035460;28;20472;-83
2022/09/18 11:29:31;;;;;;;7.73;3.43;;;13.90;99.90;;;;;;5037187;28;20452;-84
2022/09/18 11:32:05;;;;;;;4.67;2.90;;;13.90;99.90;;;;;;5034650;28;20452;-84
2022/09/18 11:34:35;;;;;;;8.50;2.67;;;13.90;99.90;;;;;;5052521;28;20455;-84
2022/09/18 11:37:06;;;;;;;4.37;3.07;;;13.80;99.90;;;;;;5051416;28;20440;-82
2022/09/18 11:39:37;;;;;;;6.60;2.90;;;13.80;99.90;;;;;;5034886;28;20452;-85
2022/09/18 11:42:14;;;;;;;6.33;2.97;;;13.70;99.90;;;;;;5043980;28;20501;-84
2022/09/18 11:44:41;;;;;;;4.07;2.27;;;13.70;99.90;;;;;;5014731;28;20452;-84
2022/09/18 11:47:32;;;;;;;8.73;4.10;;;13.60;99.90;;;;;;5034310;28;20848;-84
2022/09/18 11:50:08;;;;;;;10.70;3.40;;;13.70;99.90;;;;;;5036693;28;20440;-85
2022/09/18 11:52:42;;;;;;;3.83;2.40;;;13.80;99.90;;;;;;5040880;28;20484;-85
2022/09/18 11:55:28;;;;;;;7.97;3.37;;;14.10;99.90;;;;;;5037594;28;20475;-84
2022/09/18 11:57:58;;;;;;;4.40;2.07;;;14.50;99.90;;;;;;5035397;28;20463;-84
2022/09/18 12:00:31;;;;;;;5.60;2.47;;;14.50;99.50;;;;;;5035906;28;20539;-84
2022/09/18 12:03:07;;;;;;;6.33;2.07;;;14.70;99.60;;;;;;5035580;28;20479;-85
2022/09/18 12:05:40;;;;;;;4.63;2.00;;;14.90;99.60;;;;;;5038072;28;20454;-85
2022/09/18 12:08:16;;;;;;;6.00;2.30;;;15.30;97.80;;;;;;5035227;28;20454;-84
2022/09/18 12:11:01;;;;;;;5.93;2.00;;;15.30;96.50;;;;;;5035836;28;20452;-85
2022/09/18 12:13:45;;;;;;;4.87;2.03;;;15.50;96.80;;;;;;5036150;28;20474;-84
2022/09/18 12:16:19;;;;;;;6.70;2.60;;;15.50;93.90;;;;;;5034622;28;20488;-85
2022/09/18 12:18:53;;;;;;;4.60;2.33;;;15.40;94.70;;;;;;5022336;28;20455;-85
2022/09/18 12:21:24;;;;;;;9.50;2.20;;;15.20;94.80;;;;;;5015640;28;20449;-85
2022/09/18 12:23:51;;;;;;;5.03;1.57;;;15.00;95.80;;;;;;5016234;28;20485;-85
2022/09/18 12:26:26;;;;;;;4.40;2.37;;;14.70;96.00;;;;;;5014760;28;20519;-85
2022/09/18 12:29:18;;;;;;;6.60;2.33;;;14.40;97.00;;;;;;5024445;28;20443;-83
2022/09/18 12:31:54;;;;;;;9.10;2.50;;;13.80;99.90;;;;;;5034092;28;20884;-82
2022/09/18 12:34:29;;;;;;;8.10;2.60;;;13.20;99.90;;;;;;5034525;28;20531;-84
2022/09/18 12:37:13;;;;;;;7.60;3.33;;;12.60;99.90;;;;;;5036770;28;20452;-85
2022/09/18 12:40:09;;;;;;;5.40;2.60;;;12.10;99.90;;;;;;5032801;28;20843;-84
2022/09/18 12:42:43;;;;;;;12.63;11.57;;;11.90;99.90;;;;;;5031566;28;20504;-85
2022/09/18 12:45:36;;;;;;;15.23;13.90;;;11.80;99.90;;;;;;5031743;28;20503;-83
2022/09/18 12:48:18;;;;;;;151.07;146.07;;;11.80;99.90;;;;;;5029974;28;20479;-83
2022/09/18 12:51:21;;;;;;;228.10;220.80;;;11.80;99.90;;;;;;5031874;28;20448;-84
2022/09/18 12:53:56;;;;;;;143.30;138.33;;;12.00;99.90;;;;;;5029021;28;20483;-84
2022/09/18 12:56:39;;;;;;;165.90;160.40;;;12.00;99.90;;;;;;5032068;28;20814;-81
2022/09/18 12:59:24;;;;;;;84.93;81.80;;;11.50;99.90;;;;;;5032041;28;20468;-83
2022/09/18 13:01:55;;;;;;;11.00;9.97;;;11.90;99.90;;;;;;5032527;28;20862;-83
2022/09/18 13:04:28;;;;;;;108.03;104.13;;;11.70;99.90;;;;;;5031896;28;20575;-84
2022/09/18 13:07:08;;;;;;;180.77;173.83;;;11.80;99.90;;;;;;5032099;28;20479;-85
2022/09/18 13:09:42;;;;;;;224.83;217.40;;;12.30;99.90;;;;;;5031580;28;20451;-85
2022/09/18 13:12:17;;;;;;;107.23;102.37;;;12.30;99.90;;;;;;5033145;28;20481;-84
2022/09/18 13:14:48;;;;;;;84.73;81.13;;;12.20;99.90;;;;;;5027495;28;20452;-84
2022/09/18 13:17:19;;;;;;;51.60;49.33;;;11.90;99.90;;;;;;5032240;28;20436;-83
2022/09/18 13:19:52;;;;;;;361.10;348.23;;;11.80;99.90;;;;;;5033077;28;20475;-84
2022/09/18 13:22:21;;;;;;;512.17;489.07;;;12.00;99.90;;;;;;5032274;28;20833;-83
2022/09/18 13:24:54;;;;;;;531.00;505.53;;;11.90;99.90;;;;;;5032437;28;20459;-84
2022/09/18 13:27:23;;;;;;;520.60;496.20;;;12.00;99.90;;;;;;5032371;28;20460;-83
2022/09/18 13:29:57;;;;;;;580.33;550.20;;;11.80;99.90;;;;;;5032560;28;20483;-83
2022/09/18 13:32:37;;;;;;;637.87;598.57;;;11.60;99.90;;;;;;5035356;28;20559;-84
2022/09/18 13:35:07;;;;;;;646.03;604.87;;;12.20;99.90;;;;;;5036211;28;20476;-84
2022/09/18 13:37:35;;;;;;;646.17;603.00;;;11.90;99.90;;;;;;5036152;28;20437;-83